sensor_id;sensor_type;location;lat;lon;timestamp;pressure;altitude;pressure_sealevel;temperature;humidity
39275;BME280;24980;48.874;2.332;2023-04-07T00:02:08;101284.29;;;19.99;54.43
39275;BME280;24980;48.874;2.332;2023-04-07T00:04:38;101277.88;;;19.98;54.41
39275;BME280;24980;48.874;2.332;2023-04-07T00:07:09;101278.96;;;19.97;54.40
39275;BME280;24980;48.874;2.332;2023-04-07T00:09:41;101280.16;;;19.96;54.38
39275;BME280;24980;48.874;2.332;2023-04-07T00:12:10;101281.66;;;19.95;54.39
39275;BME280;24980;48.874;2.332;2023-04-07T00:17:10;101281.39;;;19.94;54.38
39275;BME280;24980;48.874;2.332;2023-04-07T00:19:42;101278.64;;;19.93;54.36
39275;BME280;24980;48.874;2.332;2023-04-07T00:22:11;101277.12;;;19.92;54.36
39275;BME280;24980;48.874;2.332;2023-04-07T00:24:41;101277.28;;;19.92;54.37
39275;BME280;24980;48.874;2.332;2023-04-07T00:27:11;101276.52;;;19.91;54.36
39275;BME280;24980;48.874;2.332;2023-04-07T00:29:43;101275.02;;;19.90;54.34
39275;BME280;24980;48.874;2.332;2023-04-07T00:32:12;101270.56;;;19.90;54.34
39275;BME280;24980;48.874;2.332;2023-04-07T00:34:42;101271.14;;;19.89;54.37
39275;BME280;24980;48.874;2.332;2023-04-07T00:37:15;101264.07;;;19.89;54.39
39275;BME280;24980;48.874;2.332;2023-04-07T00:39:44;101261.79;;;19.88;54.42
39275;BME280;24980;48.874;2.332;2023-04-07T00:42:14;101264.98;;;19.88;54.47
39275;BME280;24980;48.874;2.332;2023-04-07T00:44:44;101260.46;;;19.87;54.52
39275;BME280;24980;48.874;2.332;2023-04-07T00:47:15;101258.50;;;19.87;54.55
39275;BME280;24980;48.874;2.332;2023-04-07T00:49:45;101256.31;;;19.87;54.55
39275;BME280;24980;48.874;2.332;2023-04-07T00:52:16;101256.25;;;19.86;54.52
39275;BME280;24980;48.874;2.332;2023-04-07T00:54:46;101259.27;;;19.86;54.51
39275;BME280;24980;48.874;2.332;2023-04-07T00:57:16;101260.27;;;19.85;54.50
39275;BME280;24980;48.874;2.332;2023-04-07T00:59:46;101255.22;;;19.85;54.46
39275;BME280;24980;48.874;2.332;2023-04-07T01:02:21;101261.30;;;19.84;54.46
39275;BME280;24980;48.874;2.332;2023-04-07T01:04:54;101255.47;;;19.82;54.45
39275;BME280;24980;48.874;2.332;2023-04-07T01:07:26;101258.16;;;19.82;54.45
39275;BME280;24980;48.874;2.332;2023-04-07T01:10:00;101254.72;;;19.82;54.45
39275;BME280;24980;48.874;2.332;2023-04-07T01:14:57;101252.11;;;19.80;54.45
39275;BME280;24980;48.874;2.332;2023-04-07T01:17:24;101252.34;;;19.78;54.44
39275;BME280;24980;48.874;2.332;2023-04-07T01:20:04;101261.70;;;19.77;54.42
39275;BME280;24980;48.874;2.332;2023-04-07T01:22:26;101255.31;;;19.77;54.42
39275;BME280;24980;48.874;2.332;2023-04-07T01:25:17;101257.15;;;19.76;54.42
39275;BME280;24980;48.874;2.332;2023-04-07T01:30:00;101252.60;;;19.76;54.48
39275;BME280;24980;48.874;2.332;2023-04-07T01:32:27;101252.27;;;19.76;54.52
39275;BME280;24980;48.874;2.332;2023-04-07T01:34:55;101261.35;;;19.76;54.58
39275;BME280;24980;48.874;2.332;2023-04-07T01:37:26;101252.35;;;19.76;54.59
39275;BME280;24980;48.874;2.332;2023-04-07T01:39:55;101257.81;;;19.76;54.59
39275;BME280;24980;48.874;2.332;2023-04-07T01:42:26;101260.50;;;19.75;54.58
39275;BME280;24980;48.874;2.332;2023-04-07T01:44:58;101264.72;;;19.74;54.55
39275;BME280;24980;48.874;2.332;2023-04-07T01:47:27;101259.08;;;19.73;54.53
39275;BME280;24980;48.874;2.332;2023-04-07T01:49:57;101257.14;;;19.73;54.51
39275;BME280;24980;48.874;2.332;2023-04-07T01:52:28;101256.96;;;19.72;54.49
39275;BME280;24980;48.874;2.332;2023-04-07T01:54:59;101258.05;;;19.71;54.47
39275;BME280;24980;48.874;2.332;2023-04-07T01:57:28;101256.97;;;19.70;54.47
39275;BME280;24980;48.874;2.332;2023-04-07T02:00:04;101256.54;;;19.69;54.47
39275;BME280;24980;48.874;2.332;2023-04-07T02:02:29;101257.38;;;19.69;54.47
39275;BME280;24980;48.874;2.332;2023-04-07T02:05:06;101259.66;;;19.68;54.47
39275;BME280;24980;48.874;2.332;2023-04-07T02:07:36;101267.31;;;19.68;54.47
39275;BME280;24980;48.874;2.332;2023-04-07T02:10:02;101263.85;;;19.67;54.46
39275;BME280;24980;48.874;2.332;2023-04-07T02:12:36;101267.12;;;19.66;54.47
39275;BME280;24980;48.874;2.332;2023-04-07T02:15:05;101269.72;;;19.66;54.49
39275;BME280;24980;48.874;2.332;2023-04-07T02:17:34;101264.03;;;19.65;54.49
39275;BME280;24980;48.874;2.332;2023-04-07T02:20:05;101267.72;;;19.64;54.49
39275;BME280;24980;48.874;2.332;2023-04-07T02:22:35;101267.95;;;19.63;54.47
39275;BME280;24980;48.874;2.332;2023-04-07T02:25:20;101268.70;;;19.62;54.48
39275;BME280;24980;48.874;2.332;2023-04-07T02:27:36;101268.72;;;19.61;54.48
39275;BME280;24980;48.874;2.332;2023-04-07T02:30:13;101274.44;;;19.61;54.49
39275;BME280;24980;48.874;2.332;2023-04-07T02:32:35;101271.98;;;19.60;54.50
39275;BME280;24980;48.874;2.332;2023-04-07T02:35:05;101269.29;;;19.60;54.50
39275;BME280;24980;48.874;2.332;2023-04-07T02:37:35;101275.42;;;19.59;54.52
39275;BME280;24980;48.874;2.332;2023-04-07T02:40:09;101271.33;;;19.58;54.54
39275;BME280;24980;48.874;2.332;2023-04-07T02:42:35;101272.83;;;19.58;54.54
39275;BME280;24980;48.874;2.332;2023-04-07T02:45:07;101267.35;;;19.57;54.55
39275;BME280;24980;48.874;2.332;2023-04-07T02:47:37;101267.34;;;19.57;54.58
39275;BME280;24980;48.874;2.332;2023-04-07T02:50:08;101267.84;;;19.56;54.58
39275;BME280;24980;48.874;2.332;2023-04-07T02:52:37;101262.29;;;19.56;54.60
39275;BME280;24980;48.874;2.332;2023-04-07T02:55:08;101260.35;;;19.55;54.60
39275;BME280;24980;48.874;2.332;2023-04-07T02:57:39;101253.23;;;19.55;54.61
39275;BME280;24980;48.874;2.332;2023-04-07T03:00:12;101259.53;;;19.55;54.66
39275;BME280;24980;48.874;2.332;2023-04-07T03:05:23;101257.34;;;19.55;54.80
39275;BME280;24980;48.874;2.332;2023-04-07T03:07:41;101260.70;;;19.56;54.82
39275;BME280;24980;48.874;2.332;2023-04-07T03:10:11;101258.02;;;19.55;54.82
39275;BME280;24980;48.874;2.332;2023-04-07T03:12:42;101258.61;;;19.55;54.81
39275;BME280;24980;48.874;2.332;2023-04-07T03:15:12;101258.93;;;19.54;54.80
39275;BME280;24980;48.874;2.332;2023-04-07T03:17:48;101255.98;;;19.53;54.79
39275;BME280;24980;48.874;2.332;2023-04-07T03:20:13;101256.14;;;19.53;54.79
39275;BME280;24980;48.874;2.332;2023-04-07T03:22:50;101257.09;;;19.52;54.79
39275;BME280;24980;48.874;2.332;2023-04-07T03:25:13;101256.14;;;19.50;54.79
39275;BME280;24980;48.874;2.332;2023-04-07T03:27:44;101261.52;;;19.50;54.79
39275;BME280;24980;48.874;2.332;2023-04-07T03:30:14;101260.67;;;19.49;54.79
39275;BME280;24980;48.874;2.332;2023-04-07T03:32:44;101262.03;;;19.48;54.78
39275;BME280;24980;48.874;2.332;2023-04-07T03:35:17;101264.13;;;19.48;54.76
39275;BME280;24980;48.874;2.332;2023-04-07T03:37:44;101267.31;;;19.47;54.76
39275;BME280;24980;48.874;2.332;2023-04-07T03:40:14;101270.51;;;19.47;54.76
39275;BME280;24980;48.874;2.332;2023-04-07T03:42:45;101274.45;;;19.47;54.76
39275;BME280;24980;48.874;2.332;2023-04-07T03:45:16;101271.92;;;19.46;54.76
39275;BME280;24980;48.874;2.332;2023-04-07T03:47:46;101270.84;;;19.45;54.77
39275;BME280;24980;48.874;2.332;2023-04-07T03:50:17;101269.74;;;19.44;54.77
39275;BME280;24980;48.874;2.332;2023-04-07T03:52:46;101272.36;;;19.44;54.77
39275;BME280;24980;48.874;2.332;2023-04-07T03:55:16;101271.50;;;19.43;54.79
39275;BME280;24980;48.874;2.332;2023-04-07T03:57:46;101271.24;;;19.43;54.81
39275;BME280;24980;48.874;2.332;2023-04-07T04:00:19;101271.07;;;19.43;54.84
39275;BME280;24980;48.874;2.332;2023-04-07T04:02:47;101268.72;;;19.43;54.86
39275;BME280;24980;48.874;2.332;2023-04-07T04:05:17;101268.05;;;19.43;54.88
39275;BME280;24980;48.874;2.332;2023-04-07T04:07:53;101268.88;;;19.43;54.91
39275;BME280;24980;48.874;2.332;2023-04-07T04:10:23;101267.90;;;19.42;54.95
39275;BME280;24980;48.874;2.332;2023-04-07T04:12:48;101273.02;;;19.42;54.99
39275;BME280;24980;48.874;2.332;2023-04-07T04:15:18;101277.31;;;19.42;55.05
39275;BME280;24980;48.874;2.332;2023-04-07T04:17:49;101279.89;;;19.42;55.10
39275;BME280;24980;48.874;2.332;2023-04-07T04:20:19;101284.34;;;19.43;55.17
39275;BME280;24980;48.874;2.332;2023-04-07T04:22:49;101283.52;;;19.43;55.22
39275;BME280;24980;48.874;2.332;2023-04-07T04:25:19;101292.25;;;19.43;55.27
39275;BME280;24980;48.874;2.332;2023-04-07T04:27:50;101289.42;;;19.42;55.29
39275;BME280;24980;48.874;2.332;2023-04-07T04:30:20;101297.48;;;19.42;55.31
39275;BME280;24980;48.874;2.332;2023-04-07T04:32:50;101290.33;;;19.41;55.31
39275;BME280;24980;48.874;2.332;2023-04-07T04:35:22;101295.89;;;19.42;55.30
39275;BME280;24980;48.874;2.332;2023-04-07T04:37:51;101295.70;;;19.41;55.28
39275;BME280;24980;48.874;2.332;2023-04-07T04:40:32;101297.03;;;19.40;55.25
39275;BME280;24980;48.874;2.332;2023-04-07T04:42:53;101299.20;;;19.39;55.24
39275;BME280;24980;48.874;2.332;2023-04-07T04:45:24;101300.05;;;19.39;55.22
39275;BME280;24980;48.874;2.332;2023-04-07T04:47:53;101306.17;;;19.38;55.20
39275;BME280;24980;48.874;2.332;2023-04-07T04:50:23;101301.29;;;19.38;55.17
39275;BME280;24980;48.874;2.332;2023-04-07T04:52:53;101298.67;;;19.37;55.15
39275;BME280;24980;48.874;2.332;2023-04-07T04:55:23;101301.35;;;19.36;55.15
39275;BME280;24980;48.874;2.332;2023-04-07T04:57:54;101300.45;;;19.36;55.16
39275;BME280;24980;48.874;2.332;2023-04-07T05:00:27;101302.97;;;19.36;55.17
39275;BME280;24980;48.874;2.332;2023-04-07T05:02:57;101304.88;;;19.36;55.17
39275;BME280;24980;48.874;2.332;2023-04-07T05:05:28;101306.48;;;19.37;55.18
39275;BME280;24980;48.874;2.332;2023-04-07T05:07:56;101306.69;;;19.39;55.21
39275;BME280;24980;48.874;2.332;2023-04-07T05:10:26;101306.80;;;19.40;55.22
39275;BME280;24980;48.874;2.332;2023-04-07T05:12:58;101310.09;;;19.42;55.24
39275;BME280;24980;48.874;2.332;2023-04-07T05:15:27;101310.17;;;19.42;55.26
39275;BME280;24980;48.874;2.332;2023-04-07T05:17:57;101306.73;;;19.42;55.28
39275;BME280;24980;48.874;2.332;2023-04-07T05:20:27;101310.58;;;19.43;55.29
39275;BME280;24980;48.874;2.332;2023-04-07T05:22:57;101307.16;;;19.42;55.30
39275;BME280;24980;48.874;2.332;2023-04-07T05:25:28;101302.27;;;19.41;55.31
39275;BME280;24980;48.874;2.332;2023-04-07T05:27:58;101305.20;;;19.41;55.32
39275;BME280;24980;48.874;2.332;2023-04-07T05:30:28;101306.95;;;19.40;55.33
39275;BME280;24980;48.874;2.332;2023-04-07T05:32:58;101311.89;;;19.39;55.33
39275;BME280;24980;48.874;2.332;2023-04-07T05:35:28;101313.73;;;19.38;55.35
39275;BME280;24980;48.874;2.332;2023-04-07T05:37:58;101312.13;;;19.38;55.35
39275;BME280;24980;48.874;2.332;2023-04-07T05:40:28;101312.39;;;19.38;55.38
39275;BME280;24980;48.874;2.332;2023-04-07T05:43:00;101316.94;;;19.39;55.40
39275;BME280;24980;48.874;2.332;2023-04-07T05:45:39;101318.02;;;19.38;55.43
39275;BME280;24980;48.874;2.332;2023-04-07T05:50:34;101318.25;;;19.37;55.49
39275;BME280;24980;48.874;2.332;2023-04-07T05:53:00;101314.48;;;19.36;55.54
39275;BME280;24980;48.874;2.332;2023-04-07T05:55:30;101320.53;;;19.35;55.57
39275;BME280;24980;48.874;2.332;2023-04-07T05:58:00;101323.80;;;19.34;55.60
39275;BME280;24980;48.874;2.332;2023-04-07T06:00:30;101322.27;;;19.34;55.62
39275;BME280;24980;48.874;2.332;2023-04-07T06:03:00;101327.23;;;19.32;55.66
39275;BME280;24980;48.874;2.332;2023-04-07T06:05:30;101324.78;;;19.31;55.67
39275;BME280;24980;48.874;2.332;2023-04-07T06:08:00;101328.05;;;19.30;55.71
39275;BME280;24980;48.874;2.332;2023-04-07T06:10:32;101328.06;;;19.29;55.73
39275;BME280;24980;48.874;2.332;2023-04-07T06:13:01;101329.97;;;19.28;55.73
39275;BME280;24980;48.874;2.332;2023-04-07T06:15:31;101330.13;;;19.27;55.75
39275;BME280;24980;48.874;2.332;2023-04-07T06:18:01;101333.99;;;19.27;55.78
39275;BME280;24980;48.874;2.332;2023-04-07T06:20:31;101333.52;;;19.26;55.80
39275;BME280;24980;48.874;2.332;2023-04-07T06:23:01;101338.62;;;19.25;55.81
39275;BME280;24980;48.874;2.332;2023-04-07T06:25:32;101343.58;;;19.25;55.82
39275;BME280;24980;48.874;2.332;2023-04-07T06:28:04;101350.38;;;19.24;55.85
39275;BME280;24980;48.874;2.332;2023-04-07T06:30:34;101353.47;;;19.23;55.84
39275;BME280;24980;48.874;2.332;2023-04-07T06:33:05;101357.92;;;19.23;55.87
39275;BME280;24980;48.874;2.332;2023-04-07T06:35:34;101357.45;;;19.23;55.89
39275;BME280;24980;48.874;2.332;2023-04-07T06:38:19;101361.38;;;19.21;55.90
39275;BME280;24980;48.874;2.332;2023-04-07T06:45:41;101373.05;;;19.21;55.96
39275;BME280;24980;48.874;2.332;2023-04-07T06:48:16;101373.04;;;19.21;55.99
39275;BME280;24980;48.874;2.332;2023-04-07T06:50:45;101375.64;;;19.20;56.01
39275;BME280;24980;48.874;2.332;2023-04-07T06:55:45;101387.16;;;19.19;56.06
39275;BME280;24980;48.874;2.332;2023-04-07T06:58:15;101390.67;;;19.20;56.11
39275;BME280;24980;48.874;2.332;2023-04-07T07:00:39;101389.18;;;19.21;56.12
39275;BME280;24980;48.874;2.332;2023-04-07T07:03:10;101388.94;;;19.21;56.12
39275;BME280;24980;48.874;2.332;2023-04-07T07:05:41;101387.92;;;19.21;56.13
39275;BME280;24980;48.874;2.332;2023-04-07T07:08:12;101394.22;;;19.21;56.15
39275;BME280;24980;48.874;2.332;2023-04-07T07:10:44;101389.85;;;19.21;56.22
39275;BME280;24980;48.874;2.332;2023-04-07T07:13:11;101390.78;;;19.21;56.30
39275;BME280;24980;48.874;2.332;2023-04-07T07:15:43;101392.89;;;19.22;56.35
39275;BME280;24980;48.874;2.332;2023-04-07T07:18:12;101397.50;;;19.21;56.40
39275;BME280;24980;48.874;2.332;2023-04-07T07:20:44;101401.72;;;19.22;56.41
39275;BME280;24980;48.874;2.332;2023-04-07T07:23:13;101401.88;;;19.21;56.43
39275;BME280;24980;48.874;2.332;2023-04-07T07:25:51;101409.02;;;19.21;56.45
39275;BME280;24980;48.874;2.332;2023-04-07T07:28:14;101409.77;;;19.21;56.46
39275;BME280;24980;48.874;2.332;2023-04-07T07:30:45;101408.16;;;19.21;56.46
39275;BME280;24980;48.874;2.332;2023-04-07T07:33:18;101407.84;;;19.20;56.48
39275;BME280;24980;48.874;2.332;2023-04-07T07:35:46;101412.95;;;19.21;56.52
39275;BME280;24980;48.874;2.332;2023-04-07T07:38:17;101412.80;;;19.21;56.56
39275;BME280;24980;48.874;2.332;2023-04-07T07:40:50;101412.66;;;19.23;56.61
39275;BME280;24980;48.874;2.332;2023-04-07T07:43:17;101417.08;;;19.23;56.65
39275;BME280;24980;48.874;2.332;2023-04-07T07:45:50;101415.59;;;19.24;56.68
39275;BME280;24980;48.874;2.332;2023-04-07T07:48:18;101415.92;;;19.24;56.68
39275;BME280;24980;48.874;2.332;2023-04-07T07:50:50;101419.45;;;19.24;56.68
39275;BME280;24980;48.874;2.332;2023-04-07T07:53:20;101421.14;;;19.25;56.64
39275;BME280;24980;48.874;2.332;2023-04-07T07:55:49;101417.95;;;19.25;56.61
39275;BME280;24980;48.874;2.332;2023-04-07T07:58:21;101415.20;;;19.26;56.59
39275;BME280;24980;48.874;2.332;2023-04-07T08:00:52;101416.28;;;19.25;56.58
39275;BME280;24980;48.874;2.332;2023-04-07T08:03:20;101420.91;;;19.26;56.58
39275;BME280;24980;48.874;2.332;2023-04-07T08:05:51;101421.15;;;19.25;56.59
39275;BME280;24980;48.874;2.332;2023-04-07T08:08:21;101423.34;;;19.25;56.61
39275;BME280;24980;48.874;2.332;2023-04-07T08:10:53;101427.78;;;19.25;56.63
39275;BME280;24980;48.874;2.332;2023-04-07T08:13:22;101424.68;;;19.25;56.67
39275;BME280;24980;48.874;2.332;2023-04-07T08:15:52;101428.98;;;19.26;56.69
39275;BME280;24980;48.874;2.332;2023-04-07T08:18:22;101428.72;;;19.26;56.70
39275;BME280;24980;48.874;2.332;2023-04-07T08:20:57;101426.54;;;19.26;56.73
39275;BME280;24980;48.874;2.332;2023-04-07T08:23:24;101429.23;;;19.26;56.78
39275;BME280;24980;48.874;2.332;2023-04-07T08:26:03;101433.09;;;19.28;56.83
39275;BME280;24980;48.874;2.332;2023-04-07T08:28:30;101431.75;;;19.28;56.87
39275;BME280;24980;48.874;2.332;2023-04-07T08:30:55;101431.36;;;19.29;56.91
39275;BME280;24980;48.874;2.332;2023-04-07T08:33:27;101432.68;;;19.30;56.94
39275;BME280;24980;48.874;2.332;2023-04-07T08:35:55;101430.69;;;19.32;56.98
39275;BME280;24980;48.874;2.332;2023-04-07T08:38:26;101432.37;;;19.33;57.00
39275;BME280;24980;48.874;2.332;2023-04-07T08:41:05;101437.78;;;19.35;57.02
39275;BME280;24980;48.874;2.332;2023-04-07T08:43:28;101430.14;;;19.36;57.04
39275;BME280;24980;48.874;2.332;2023-04-07T08:45:57;101426.77;;;19.37;57.01
39275;BME280;24980;48.874;2.332;2023-04-07T08:48:29;101433.19;;;19.39;56.98
39275;BME280;24980;48.874;2.332;2023-04-07T08:51:08;101434.27;;;19.40;56.99
39275;BME280;24980;48.874;2.332;2023-04-07T08:53:33;101438.34;;;19.41;56.99
39275;BME280;24980;48.874;2.332;2023-04-07T08:55:59;101438.75;;;19.40;56.95
39275;BME280;24980;48.874;2.332;2023-04-07T08:58:30;101442.05;;;19.41;56.88
39275;BME280;24980;48.874;2.332;2023-04-07T09:01:00;101441.47;;;19.41;56.80
39275;BME280;24980;48.874;2.332;2023-04-07T09:03:31;101442.12;;;19.42;56.73
39275;BME280;24980;48.874;2.332;2023-04-07T09:06:00;101447.19;;;19.42;56.67
39275;BME280;24980;48.874;2.332;2023-04-07T09:08:31;101449.69;;;19.42;56.61
39275;BME280;24980;48.874;2.332;2023-04-07T09:11:03;101448.97;;;19.44;56.56
39275;BME280;24980;48.874;2.332;2023-04-07T09:13:33;101450.64;;;19.46;56.53
39275;BME280;24980;48.874;2.332;2023-04-07T09:16:03;101451.85;;;19.48;56.50
39275;BME280;24980;48.874;2.332;2023-04-07T09:18:33;101454.38;;;19.50;56.47
39275;BME280;24980;48.874;2.332;2023-04-07T09:21:05;101455.17;;;19.52;56.44
39275;BME280;24980;48.874;2.332;2023-04-07T09:23:35;101453.81;;;19.54;56.42
39275;BME280;24980;48.874;2.332;2023-04-07T09:26:23;101461.47;;;19.56;56.39
39275;BME280;24980;48.874;2.332;2023-04-07T09:28:42;101459.07;;;19.58;56.38
39275;BME280;24980;48.874;2.332;2023-04-07T09:31:13;101463.66;;;19.54;56.36
39275;BME280;24980;48.874;2.332;2023-04-07T09:33:34;101458.31;;;19.48;56.41
39275;BME280;24980;48.874;2.332;2023-04-07T09:36:06;101456.20;;;19.47;56.35
39275;BME280;24980;48.874;2.332;2023-04-07T09:38:37;101463.12;;;19.48;56.27
39275;BME280;24980;48.874;2.332;2023-04-07T09:41:11;101464.25;;;19.52;56.19
39275;BME280;24980;48.874;2.332;2023-04-07T09:43:38;101459.28;;;19.55;56.11
39275;BME280;24980;48.874;2.332;2023-04-07T09:46:08;101460.14;;;19.57;56.04
39275;BME280;24980;48.874;2.332;2023-04-07T09:48:38;101458.23;;;19.60;56.00
39275;BME280;24980;48.874;2.332;2023-04-07T09:51:13;101458.49;;;19.63;55.95
39275;BME280;24980;48.874;2.332;2023-04-07T09:53:46;101463.38;;;19.65;55.89
39275;BME280;24980;48.874;2.332;2023-04-07T09:56:11;101457.19;;;19.67;55.83
39275;BME280;24980;48.874;2.332;2023-04-07T09:58:43;101458.38;;;19.70;55.81
39275;BME280;24980;48.874;2.332;2023-04-07T10:01:11;101457.20;;;19.72;55.82
39275;BME280;24980;48.874;2.332;2023-04-07T10:03:41;101455.03;;;19.73;55.83
39275;BME280;24980;48.874;2.332;2023-04-07T10:06:12;101458.14;;;19.73;55.84
39275;BME280;24980;48.874;2.332;2023-04-07T10:08:42;101456.47;;;19.74;55.83
39275;BME280;24980;48.874;2.332;2023-04-07T10:11:14;101460.22;;;19.72;55.79
39275;BME280;24980;48.874;2.332;2023-04-07T10:13:44;101455.34;;;19.70;55.76
39275;BME280;24980;48.874;2.332;2023-04-07T10:16:13;101458.78;;;19.67;55.71
39275;BME280;24980;48.874;2.332;2023-04-07T10:18:44;101462.38;;;19.66;55.66
39275;BME280;24980;48.874;2.332;2023-04-07T10:21:15;101458.92;;;19.63;55.60
39275;BME280;24980;48.874;2.332;2023-04-07T10:24:09;101456.64;;;19.62;55.55
39275;BME280;24980;48.874;2.332;2023-04-07T10:26:27;101464.30;;;19.63;55.48
39275;BME280;24980;48.874;2.332;2023-04-07T10:28:50;101457.91;;;19.63;55.43
39275;BME280;24980;48.874;2.332;2023-04-07T10:31:16;101462.45;;;19.61;55.38
39275;BME280;24980;48.874;2.332;2023-04-07T10:33:49;101456.13;;;19.62;55.33
39275;BME280;24980;48.874;2.332;2023-04-07T10:36:18;101462.12;;;19.66;55.28
39275;BME280;24980;48.874;2.332;2023-04-07T10:41:38;101458.48;;;19.73;55.20
39275;BME280;24980;48.874;2.332;2023-04-07T10:43:48;101453.68;;;19.75;55.19
39275;BME280;24980;48.874;2.332;2023-04-07T10:46:18;101460.44;;;19.77;55.17
39275;BME280;24980;48.874;2.332;2023-04-07T10:49:08;101458.00;;;19.77;55.16
39275;BME280;24980;48.874;2.332;2023-04-07T10:51:19;101452.69;;;19.76;55.15
39275;BME280;24980;48.874;2.332;2023-04-07T10:54:15;101457.38;;;19.75;55.15
39275;BME280;24980;48.874;2.332;2023-04-07T10:56:22;101455.36;;;19.73;55.13
39275;BME280;24980;48.874;2.332;2023-04-07T11:01:21;101457.76;;;19.66;55.08
39275;BME280;24980;48.874;2.332;2023-04-07T11:03:56;101448.18;;;19.65;55.04
39275;BME280;24980;48.874;2.332;2023-04-07T11:06:22;101449.69;;;19.64;55.01
39275;BME280;24980;48.874;2.332;2023-04-07T11:08:52;101450.61;;;19.66;54.98
39275;BME280;24980;48.874;2.332;2023-04-07T11:11:37;101449.73;;;19.71;54.96
39275;BME280;24980;48.874;2.332;2023-04-07T11:13:53;101448.98;;;19.76;54.95
39275;BME280;24980;48.874;2.332;2023-04-07T11:16:34;101448.76;;;19.80;54.96
39275;BME280;24980;48.874;2.332;2023-04-07T11:18:56;101445.66;;;19.85;54.97
39275;BME280;24980;48.874;2.332;2023-04-07T11:21:32;101442.41;;;19.89;54.99
39275;BME280;24980;48.874;2.332;2023-04-07T11:23:54;101443.09;;;19.92;55.01
39275;BME280;24980;48.874;2.332;2023-04-07T11:26:24;101444.73;;;19.97;55.03
39275;BME280;24980;48.874;2.332;2023-04-07T11:28:55;101446.00;;;20.00;55.04
39275;BME280;24980;48.874;2.332;2023-04-07T11:31:27;101444.64;;;20.01;55.05
39275;BME280;24980;48.874;2.332;2023-04-07T11:33:57;101443.37;;;20.00;55.04
39275;BME280;24980;48.874;2.332;2023-04-07T11:36:37;101443.52;;;19.97;55.04
39275;BME280;24980;48.874;2.332;2023-04-07T11:38:58;101447.31;;;19.95;55.01
39275;BME280;24980;48.874;2.332;2023-04-07T11:41:29;101440.41;;;19.92;54.99
39275;BME280;24980;48.874;2.332;2023-04-07T11:44:11;101439.29;;;19.91;54.96
39275;BME280;24980;48.874;2.332;2023-04-07T11:46:29;101443.17;;;19.90;54.92
39275;BME280;24980;48.874;2.332;2023-04-07T11:49:10;101439.66;;;19.90;54.89
39275;BME280;24980;48.874;2.332;2023-04-07T11:51:30;101438.33;;;19.94;54.84
39275;BME280;24980;48.874;2.332;2023-04-07T11:54:00;101442.12;;;19.99;54.82
39275;BME280;24980;48.874;2.332;2023-04-07T11:56:41;101437.83;;;20.04;54.80
39275;BME280;24980;48.874;2.332;2023-04-07T11:59:00;101436.52;;;20.08;54.78
39275;BME280;24980;48.874;2.332;2023-04-07T12:01:40;101438.21;;;20.11;54.78
39275;BME280;24980;48.874;2.332;2023-04-07T12:04:02;101427.59;;;20.10;54.77
39275;BME280;24980;48.874;2.332;2023-04-07T12:06:35;101433.08;;;20.09;54.77
39275;BME280;24980;48.874;2.332;2023-04-07T12:09:03;101436.86;;;20.06;54.78
39275;BME280;24980;48.874;2.332;2023-04-07T12:11:34;101443.23;;;20.05;54.77
39275;BME280;24980;48.874;2.332;2023-04-07T12:14:04;101444.07;;;20.02;54.74
39275;BME280;24980;48.874;2.332;2023-04-07T12:16:38;101440.95;;;20.00;54.71
39275;BME280;24980;48.874;2.332;2023-04-07T12:19:04;101440.75;;;19.97;54.67
39275;BME280;24980;48.874;2.332;2023-04-07T12:21:48;101441.18;;;19.98;54.66
39275;BME280;24980;48.874;2.332;2023-04-07T12:24:05;101433.96;;;19.99;54.65
39275;BME280;24980;48.874;2.332;2023-04-07T12:26:35;101431.70;;;20.02;54.65
39275;BME280;24980;48.874;2.332;2023-04-07T12:29:05;101427.91;;;20.04;54.66
39275;BME280;24980;48.874;2.332;2023-04-07T12:31:36;101428.59;;;20.05;54.66
39275;BME280;24980;48.874;2.332;2023-04-07T12:34:06;101430.36;;;20.07;54.65
39275;BME280;24980;48.874;2.332;2023-04-07T12:36:37;101431.05;;;20.08;54.65
39275;BME280;24980;48.874;2.332;2023-04-07T12:39:09;101432.05;;;20.10;54.65
39275;BME280;24980;48.874;2.332;2023-04-07T12:41:37;101435.52;;;20.11;54.64
39275;BME280;24980;48.874;2.332;2023-04-07T12:44:08;101435.10;;;20.12;54.64
39275;BME280;24980;48.874;2.332;2023-04-07T12:46:39;101435.28;;;20.13;54.67
39275;BME280;24980;48.874;2.332;2023-04-07T12:49:09;101434.85;;;20.14;54.69
39275;BME280;24980;48.874;2.332;2023-04-07T12:51:54;101431.84;;;20.18;54.71
39275;BME280;24980;48.874;2.332;2023-04-07T12:54:10;101423.53;;;20.22;54.75
39275;BME280;24980;48.874;2.332;2023-04-07T12:56:42;101430.80;;;20.27;54.76
39275;BME280;24980;48.874;2.332;2023-04-07T12:59:10;101430.66;;;20.31;54.75
39275;BME280;24980;48.874;2.332;2023-04-07T13:01:40;101425.53;;;20.35;54.76
39275;BME280;24980;48.874;2.332;2023-04-07T13:04:10;101422.35;;;20.39;54.74
39275;BME280;24980;48.874;2.332;2023-04-07T13:06:41;101422.09;;;20.38;54.74
39275;BME280;24980;48.874;2.332;2023-04-07T13:09:11;101421.91;;;20.39;54.75
39275;BME280;24980;48.874;2.332;2023-04-07T13:11:41;101424.70;;;20.41;54.75
39275;BME280;24980;48.874;2.332;2023-04-07T13:14:11;101422.77;;;20.43;54.74
39275;BME280;24980;48.874;2.332;2023-04-07T13:16:41;101417.12;;;20.46;54.72
39275;BME280;24980;48.874;2.332;2023-04-07T13:19:11;101422.34;;;20.49;54.72
39275;BME280;24980;48.874;2.332;2023-04-07T13:21:49;101423.44;;;20.48;54.78
39275;BME280;24980;48.874;2.332;2023-04-07T13:24:11;101423.52;;;20.46;54.86
39275;BME280;24980;48.874;2.332;2023-04-07T13:26:41;101433.14;;;20.45;54.92
39275;BME280;24980;48.874;2.332;2023-04-07T13:29:11;101426.71;;;20.42;54.94
39275;BME280;24980;48.874;2.332;2023-04-07T13:31:43;101429.74;;;20.40;54.93